Time;durP1;ratioP1;P1;durP2;ratioP2;P2;SDS_P1;SDS_P2;PMS_P1;PMS_P2;Temp;Humidity;BMP_temperature;BMP_pressure;BME280_temperature;BME280_humidity;BME280_pressure;Samples;Min_cycle;Max_cycle;Signal;HPM_P1;HPM_P2
2023/08/24 00:00:16;;;;;;;13.77;8.25;;;;;;;26.45;53.18;98161.94;5029575;28;20308;-58
2023/08/24 00:02:41;;;;;;;12.02;8.27;;;;;;;26.37;54.20;98186.03;5031250;28;20376;-58
2023/08/24 00:05:07;;;;;;;8.85;8.05;;;;;;;26.45;52.80;98199.09;5032039;28;20265;-58
2023/08/24 00:07:32;;;;;;;10.30;7.35;;;;;;;26.40;53.03;98196.25;5049178;28;20185;-58
2023/08/24 00:09:58;;;;;;;12.10;8.10;;;;;;;25.95;53.79;98183.91;5049133;28;20363;-58
2023/08/24 00:12:23;;;;;;;11.02;8.95;;;;;;;25.97;54.79;98181.88;5048985;28;20185;-58
2023/08/24 00:14:49;;;;;;;9.20;8.07;;;;;;;25.96;54.05;98184.75;5049298;28;20193;-57
2023/08/24 00:17:14;;;;;;;8.45;7.60;;;;;;;26.08;53.74;98204.28;5049190;28;20593;-58
2023/08/24 00:19:40;;;;;;;8.52;7.72;;;;;;;25.95;54.41;98183.13;5049036;28;20239;-58
2023/08/24 00:22:05;;;;;;;11.57;7.97;;;;;;;25.97;54.47;98205.75;5049102;28;20188;-58
2023/08/24 00:24:31;;;;;;;14.80;8.20;;;;;;;26.04;54.27;98203.06;5049065;28;20553;-58
2023/08/24 00:26:56;;;;;;;11.75;8.60;;;;;;;26.12;54.38;98208.97;5049259;28;20208;-58
2023/08/24 00:29:21;;;;;;;9.68;8.27;;;;;;;25.54;55.82;98178.00;5049004;28;20185;-58
2023/08/24 00:31:47;;;;;;;13.68;8.30;;;;;;;25.53;56.13;98192.28;5028781;28;20592;-58
2023/08/24 00:34:13;;;;;;;8.93;8.02;;;;;;;25.71;56.24;98213.69;5028223;28;20190;-58
2023/08/24 00:36:38;;;;;;;8.63;7.80;;;;;;;25.64;56.90;98206.75;5028954;28;20577;-58
2023/08/24 00:39:04;;;;;;;9.57;7.47;;;;;;;25.43;56.99;98183.94;5014416;28;20189;-58
2023/08/24 00:41:30;;;;;;;9.05;8.10;;;;;;;25.36;57.48;98180.47;5009067;28;20190;-58
2023/08/24 00:43:55;;;;;;;8.32;7.55;;;;;;;25.33;58.12;98186.19;5009422;28;20190;-57
2023/08/24 00:46:22;;;;;;;10.02;7.85;;;;;;;25.42;57.97;98187.59;5009108;28;20191;-58
2023/08/24 00:48:48;;;;;;;8.45;7.45;;;;;;;25.52;57.67;98190.66;5008855;28;20186;-57
2023/08/24 00:51:14;;;;;;;8.68;7.88;;;;;;;25.60;56.73;98187.78;5008965;28;20618;-58
2023/08/24 00:53:39;;;;;;;10.52;7.60;;;;;;;25.50;56.79;98162.75;5009069;28;20505;-58
2023/08/24 00:56:06;;;;;;;9.80;7.47;;;;;;;25.60;56.29;98182.50;5008945;28;20178;-58
2023/08/24 00:58:33;;;;;;;9.68;7.70;;;;;;;25.73;55.80;98182.47;5008827;28;20202;-58
2023/08/24 01:00:58;;;;;;;10.13;7.88;;;;;;;25.69;56.19;98180.44;5008779;28;20555;-58
2023/08/24 01:03:24;;;;;;;9.40;7.32;;;;;;;25.58;56.61;98194.31;5038979;28;20185;-58
2023/08/24 01:05:50;;;;;;;10.10;8.82;;;;;;;25.33;57.94;98194.13;5028208;28;20186;-58
2023/08/24 01:08:16;;;;;;;8.52;7.57;;;;;;;24.91;58.62;98165.31;5028296;28;20192;-58
2023/08/24 01:11:12;;;;;;;11.18;8.23;;;;;;;25.13;57.43;98158.03;5028478;28;20671;-58
2023/08/24 01:14:14;;;;;;;9.93;7.70;;;;;;;25.40;57.76;98188.81;5028408;28;20197;-58
2023/08/24 01:16:45;;;;;;;9.73;8.05;;;;;;;25.24;57.55;98168.84;5028473;28;20276;-58
2023/08/24 01:19:31;;;;;;;11.50;7.43;;;;;;;25.31;57.20;98182.91;5028326;28;20283;-58
2023/08/24 01:22:01;;;;;;;8.93;8.02;;;;;;;25.19;57.05;98165.16;5028389;28;20186;-59
2023/08/24 01:24:38;;;;;;;10.27;8.00;;;;;;;25.16;57.53;98174.31;5028544;28;20644;-58
2023/08/24 01:27:04;;;;;;;8.93;7.95;;;;;;;25.03;57.66;98158.41;5011695;28;20186;-58
2023/08/24 01:29:30;;;;;;;9.73;8.07;;;;;;;25.21;57.48;98182.47;5008657;28;20182;-58
2023/08/24 01:31:56;;;;;;;10.60;7.78;;;;;;;25.27;57.30;98187.00;5008505;28;20190;-58
2023/08/24 01:34:21;;;;;;;9.25;7.90;;;;;;;25.24;56.90;98173.31;5008496;28;20194;-58
2023/08/24 01:36:47;;;;;;;8.38;7.55;;;;;;;25.14;57.54;98183.47;5019032;28;20185;-58
2023/08/24 01:39:35;;;;;;;14.82;8.68;;;;;;;24.77;58.75;98153.06;5030614;28;20174;-58
2023/08/24 01:42:03;;;;;;;9.63;7.50;;;;;;;24.91;58.60;98175.09;5030740;28;20174;-58
2023/08/24 01:44:32;;;;;;;8.65;7.78;;;;;;;24.84;57.75;98151.25;5032088;28;20185;-58
2023/08/24 01:47:02;;;;;;;9.57;8.13;;;;;;;24.97;57.33;98153.91;5034666;28;20269;-58
2023/08/24 01:49:29;;;;;;;11.65;8.75;;;;;;;25.10;57.36;98188.38;5034434;28;20181;-57
2023/08/24 01:51:55;;;;;;;11.27;8.38;;;;;;;25.23;56.83;98180.44;5034509;28;20307;-58
2023/08/24 01:54:20;;;;;;;9.35;7.65;;;;;;;25.13;57.01;98180.00;5034458;28;20257;-58
2023/08/24 01:56:45;;;;;;;8.55;7.72;;;;;;;24.89;57.44;98150.63;5034421;28;20604;-57
2023/08/24 01:59:11;;;;;;;8.90;7.78;;;;;;;24.76;57.69;98146.16;5034393;28;20185;-58
2023/08/24 02:01:36;;;;;;;8.88;7.97;;;;;;;24.75;58.23;98155.09;5034364;28;20177;-58
2023/08/24 02:04:02;;;;;;;10.50;8.48;;;;;;;24.78;58.06;98149.41;5034267;28;20262;-58
2023/08/24 02:06:28;;;;;;;9.32;7.97;;;;;;;24.64;58.03;98141.63;5034236;28;20178;-58
2023/08/24 02:08:53;;;;;;;8.13;7.53;;;;;;;24.72;58.17;98144.91;5034144;28;20197;-58
2023/08/24 02:11:18;;;;;;;9.70;8.32;;;;;;;24.74;57.89;98139.41;5034141;28;20174;-58
2023/08/24 02:13:44;;;;;;;9.45;8.45;;;;;;;24.85;57.15;98139.63;5033893;28;20710;-58
2023/08/24 02:16:09;;;;;;;11.75;8.52;;;;;;;24.92;57.14;98143.13;5034431;28;20261;-58
2023/08/24 02:18:35;;;;;;;9.75;8.85;;;;;;;24.91;56.54;98128.25;5034025;28;20182;-58
2023/08/24 02:21:07;;;;;;;8.77;7.88;;;;;;;25.07;56.98;98153.53;5033942;28;20258;-58
2023/08/24 02:23:32;;;;;;;8.95;7.95;;;;;;;24.92;56.80;98129.06;5031368;28;20193;-58
2023/08/24 02:25:58;;;;;;;9.27;8.27;;;;;;;24.96;57.08;98141.69;5031621;28;20182;-58
2023/08/24 02:28:23;;;;;;;9.20;8.30;;;;;;;25.01;56.89;98149.06;4991730;28;20250;-58
2023/08/24 02:30:49;;;;;;;9.20;8.02;;;;;;;24.98;57.24;98165.31;4991898;28;20198;-57
2023/08/24 02:33:15;;;;;;;10.30;8.63;;;;;;;24.73;58.07;98145.72;4991918;28;20187;-58
2023/08/24 02:35:40;;;;;;;9.07;8.25;;;;;;;24.74;58.08;98147.34;4991729;28;20417;-58
2023/08/24 02:38:06;;;;;;;10.70;8.23;;;;;;;24.82;57.69;98147.16;4991845;28;20630;-59
2023/08/24 02:40:31;;;;;;;10.63;8.55;;;;;;;24.77;57.73;98142.47;4991690;28;20207;-59
2023/08/24 02:42:56;;;;;;;8.73;7.82;;;;;;;24.85;57.86;98150.22;4991724;28;20303;-59
2023/08/24 02:45:22;;;;;;;8.25;7.47;;;;;;;24.74;57.69;98132.28;4991837;28;20211;-59
2023/08/24 02:47:47;;;;;;;8.80;7.90;;;;;;;24.76;57.72;98130.25;4991907;28;20611;-59
2023/08/24 02:50:13;;;;;;;8.45;7.70;;;;;;;24.65;58.00;98128.22;4991682;28;20209;-58
2023/08/24 02:52:38;;;;;;;8.98;8.07;;;;;;;24.68;57.80;98133.09;4991576;28;20262;-59
2023/08/24 02:55:04;;;;;;;13.88;8.43;;;;;;;24.84;58.37;98159.19;4991252;28;20705;-59
2023/08/24 02:57:29;;;;;;;8.43;7.60;;;;;;;24.87;57.87;98158.78;4990906;28;20246;-58
2023/08/24 02:59:55;;;;;;;9.30;8.38;;;;;;;24.74;57.85;98142.88;5019898;28;20225;-58
2023/08/24 03:02:20;;;;;;;8.93;8.02;;;;;;;24.86;57.67;98151.88;5033309;28;20173;-57
2023/08/24 03:04:45;;;;;;;8.75;7.85;;;;;;;24.94;57.58;98149.03;5033176;28;20658;-58
2023/08/24 03:07:11;;;;;;;9.15;8.20;;;;;;;24.95;56.95;98149.84;5033405;28;20528;-58
2023/08/24 03:09:37;;;;;;;9.90;8.45;;;;;;;24.67;57.89;98139.41;5033126;28;20228;-57
2023/08/24 03:12:02;;;;;;;9.43;8.48;;;;;;;24.78;58.16;98160.00;5033022;28;20182;-57
2023/08/24 03:14:28;;;;;;;9.10;8.20;;;;;;;24.74;58.11;98155.31;5032746;28;20170;-58
2023/08/24 03:16:54;;;;;;;8.90;8.00;;;;;;;24.74;58.04;98157.94;5032920;28;20174;-58
2023/08/24 03:19:19;;;;;;;8.57;7.85;;;;;;;24.61;58.35;98148.13;5032769;28;20190;-58
2023/08/24 03:21:45;;;;;;;10.43;8.75;;;;;;;24.35;58.58;98126.88;5032830;28;20170;-58
2023/08/24 03:24:11;;;;;;;8.73;7.85;;;;;;;24.66;58.41;98169.53;5032811;28;20166;-57
2023/08/24 03:26:36;;;;;;;9.88;8.13;;;;;;;24.58;58.51;98157.50;5032561;28;20544;-57
2023/08/24 03:29:01;;;;;;;9.55;8.75;;;;;;;24.58;58.78;98164.41;5032497;28;20281;-58
2023/08/24 03:31:27;;;;;;;8.38;7.55;;;;;;;24.49;58.64;98154.19;5032623;28;20231;-58
2023/08/24 03:33:52;;;;;;;9.73;8.73;;;;;;;24.40;58.83;98145.59;5029998;28;20230;-58
2023/08/24 03:36:18;;;;;;;8.95;8.10;;;;;;;24.46;58.73;98144.81;5030057;28;20207;-58
2023/08/24 03:38:45;;;;;;;11.52;8.18;;;;;;;24.49;58.76;98147.06;5030104;28;20244;-58
2023/08/24 03:41:10;;;;;;;9.00;8.20;;;;;;;24.43;59.83;98150.50;5029895;28;20303;-58
2023/08/24 03:43:37;;;;;;;9.32;8.07;;;;;;;24.63;59.88;98193.75;5030073;28;20221;-58
2023/08/24 03:46:06;;;;;;;12.18;8.15;;;;;;;24.48;59.80;98174.53;5029984;28;20181;-59
2023/08/24 03:48:32;;;;;;;12.15;7.97;;;;;;;24.53;60.04;98181.84;5029762;28;20197;-59
2023/08/24 03:50:58;;;;;;;8.35;7.50;;;;;;;24.63;60.03;98204.34;5029850;28;20182;-59
2023/08/24 03:53:24;;;;;;;8.40;7.57;;;;;;;24.58;60.52;98204.13;5029799;28;20189;-58
2023/08/24 03:55:51;;;;;;;9.25;7.65;;;;;;;24.62;60.88;98213.25;5029740;28;20182;-58
2023/08/24 03:58:16;;;;;;;10.52;8.45;;;;;;;24.54;60.72;98202.84;5029681;28;20182;-58
2023/08/24 04:00:43;;;;;;;11.15;7.60;;;;;;;24.42;61.20;98185.91;5029649;28;20213;-58
2023/08/24 04:03:08;;;;;;;8.77;7.65;;;;;;;24.73;60.36;98210.06;5029712;28;20625;-57
2023/08/24 04:05:34;;;;;;;11.23;8.73;;;;;;;24.57;60.88;98196.38;5031166;28;20182;-58
2023/08/24 04:08:00;;;;;;;10.27;8.75;;;;;;;24.48;60.70;98179.81;5031932;28;20181;-58
2023/08/24 04:10:26;;;;;;;9.20;7.68;;;;;;;24.80;59.24;98221.50;5031964;28;20178;-57
2023/08/24 04:12:52;;;;;;;9.52;8.38;;;;;;;24.90;58.48;98213.19;5031897;28;20651;-58
2023/08/24 04:15:17;;;;;;;9.98;8.00;;;;;;;24.69;59.78;98190.31;5031895;28;20181;-58
2023/08/24 04:17:43;;;;;;;14.30;8.25;;;;;;;24.95;58.86;98200.97;5031761;28;20614;-58
2023/08/24 04:20:09;;;;;;;9.00;8.15;;;;;;;24.89;58.71;98180.56;5031783;28;20201;-58
2023/08/24 04:22:35;;;;;;;9.00;7.50;;;;;;;25.04;57.79;98189.19;5031668;28;20170;-58
2023/08/24 04:25:00;;;;;;;8.15;7.35;;;;;;;24.94;57.50;98186.09;5031675;28;20178;-59
2023/08/24 04:27:26;;;;;;;8.63;7.82;;;;;;;25.07;57.17;98196.69;5031686;28;20174;-58
2023/08/24 04:29:52;;;;;;;9.15;8.27;;;;;;;25.12;56.60;98193.44;5031292;28;20200;-58
2023/08/24 04:32:17;;;;;;;9.85;8.48;;;;;;;25.17;56.63;98205.06;5031516;28;20177;-58
2023/08/24 04:34:43;;;;;;;9.55;8.30;;;;;;;25.28;56.16;98215.13;5031504;28;20603;-58
2023/08/24 04:37:08;;;;;;;8.77;7.97;;;;;;;25.38;56.02;98212.06;5031178;28;20640;-58
2023/08/24 04:39:33;;;;;;;9.60;7.95;;;;;;;25.19;56.00;98183.69;5031020;28;20212;-57
2023/08/24 04:41:59;;;;;;;8.95;8.15;;;;;;;25.28;55.80;98183.31;5031371;28;20180;-58
2023/08/24 04:44:24;;;;;;;10.05;8.55;;;;;;;25.39;55.38;98193.31;5031144;28;20169;-58
2023/08/24 04:46:50;;;;;;;9.38;8.48;;;;;;;25.43;55.42;98185.78;5031261;28;20185;-58
2023/08/24 04:49:15;;;;;;;9.57;8.70;;;;;;;25.31;55.67;98185.56;5031241;28;20182;-58
2023/08/24 04:51:40;;;;;;;10.18;9.18;;;;;;;25.43;55.26;98186.56;5031142;28;20181;-57
2023/08/24 04:54:06;;;;;;;12.95;8.40;;;;;;;25.51;55.17;98194.34;5031191;28;20182;-58
2023/08/24 04:56:31;;;;;;;9.95;8.88;;;;;;;25.28;55.63;98175.38;5031073;28;20197;-58
2023/08/24 04:59:00;;;;;;;9.40;8.45;;;;;;;25.46;55.26;98185.34;5031001;28;20174;-59
2023/08/24 05:01:26;;;;;;;9.15;8.25;;;;;;;25.55;55.22;98206.16;5030949;28;20235;-59
2023/08/24 05:03:52;;;;;;;10.18;9.15;;;;;;;25.58;55.13;98208.41;5030759;28;20581;-58
2023/08/24 05:06:18;;;;;;;9.40;8.50;;;;;;;25.65;54.74;98222.47;5031008;28;20175;-58
2023/08/24 05:08:44;;;;;;;9.98;8.50;;;;;;;25.44;55.09;98198.84;5030719;28;20197;-59
2023/08/24 05:11:12;;;;;;;11.13;8.23;;;;;;;25.59;54.73;98233.09;5031017;28;20196;-58
2023/08/24 05:13:37;;;;;;;10.32;8.45;;;;;;;25.53;55.02;98241.81;5030835;28;20211;-58
2023/08/24 05:16:03;;;;;;;9.60;8.80;;;;;;;25.54;55.04;98241.63;5030625;28;20257;-58
2023/08/24 05:18:28;;;;;;;10.77;8.88;;;;;;;25.32;55.73;98211.03;5030484;28;20589;-57
2023/08/24 05:20:54;;;;;;;9.02;8.07;;;;;;;25.46;55.51;98217.97;5030394;28;20233;-58
2023/08/24 05:23:19;;;;;;;9.65;8.20;;;;;;;25.59;55.31;98223.28;5030818;28;20178;-58
2023/08/24 05:25:45;;;;;;;9.07;7.88;;;;;;;25.71;55.08;98234.09;5030785;28;20236;-58
2023/08/24 05:28:10;;;;;;;11.40;8.68;;;;;;;25.78;55.04;98248.16;5030845;28;20182;-57
2023/08/24 05:30:35;;;;;;;9.93;8.35;;;;;;;25.83;53.84;98227.94;5030770;28;20174;-58
2023/08/24 05:33:01;;;;;;;9.15;8.35;;;;;;;26.09;53.76;98243.06;5030754;28;20264;-58
2023/08/24 05:35:27;;;;;;;8.77;8.02;;;;;;;26.11;53.58;98233.88;5030474;28;20201;-58
2023/08/24 05:37:52;;;;;;;14.32;9.45;;;;;;;26.24;53.01;98233.84;5030722;28;20178;-58
2023/08/24 05:40:18;;;;;;;9.80;8.43;;;;;;;26.42;52.36;98233.19;5030890;28;20198;-58
2023/08/24 05:42:43;;;;;;;9.35;8.27;;;;;;;26.39;52.29;98221.16;5030609;28;20182;-58
2023/08/24 05:45:09;;;;;;;10.38;7.88;;;;;;;26.62;52.01;98239.25;5030431;28;20198;-58
2023/08/24 05:47:34;;;;;;;10.23;8.45;;;;;;;26.43;51.86;98206.44;5030600;28;20189;-58
2023/08/24 05:50:03;;;;;;;9.20;8.30;;;;;;;26.56;51.94;98211.72;5030617;28;20277;-58
2023/08/24 05:52:28;;;;;;;9.30;8.40;;;;;;;26.57;51.94;98220.50;5030598;28;20174;-57
2023/08/24 05:54:54;;;;;;;9.27;8.38;;;;;;;26.62;51.96;98218.84;5030917;28;20174;-58
2023/08/24 05:57:19;;;;;;;11.43;8.13;;;;;;;26.51;51.78;98192.94;5030998;28;20210;-57
2023/08/24 05:59:44;;;;;;;12.60;8.32;;;;;;;26.65;51.37;98191.06;5030855;28;20818;-57
2023/08/24 06:02:10;;;;;;;9.23;8.27;;;;;;;26.69;50.80;98198.41;5030953;28;20265;-58
2023/08/24 06:04:35;;;;;;;9.45;8.50;;;;;;;26.72;51.10;98184.72;5030963;28;20640;-58
2023/08/24 06:07:01;;;;;;;8.82;7.88;;;;;;;26.81;51.00;98196.69;5031002;28;20174;-57
2023/08/24 06:09:26;;;;;;;10.18;8.93;;;;;;;26.87;51.02;98198.50;5030974;28;20564;-58
2023/08/24 06:11:51;;;;;;;17.25;9.23;;;;;;;27.12;50.82;98223.28;5030949;28;20657;-58
2023/08/24 06:14:17;;;;;;;11.88;8.55;;;;;;;27.22;50.81;98228.97;5030913;28;20174;-58
2023/08/24 06:16:45;;;;;;;10.73;8.82;;;;;;;27.39;50.67;98238.06;5030843;28;20178;-58
2023/08/24 06:19:11;;;;;;;14.60;8.23;;;;;;;27.55;49.57;98245.50;5030456;28;20596;-58
2023/08/24 06:21:36;;;;;;;10.05;8.75;;;;;;;27.40;49.39;98220.28;5030799;28;20292;-58
2023/08/24 06:24:01;;;;;;;9.50;8.63;;;;;;;27.55;49.53;98224.25;5030791;28;20228;-58
2023/08/24 06:26:27;;;;;;;9.68;8.55;;;;;;;27.69;49.40;98216.97;5030755;28;20273;-58
2023/08/24 06:28:52;;;;;;;18.85;9.10;;;;;;;27.86;48.61;98232.19;5031000;28;20552;-58
2023/08/24 06:31:18;;;;;;;10.52;8.38;;;;;;;27.90;48.58;98225.41;5031537;28;20217;-58
2023/08/24 06:33:43;;;;;;;18.10;9.75;;;;;;;27.88;48.73;98211.50;5034279;28;20675;-59
2023/08/24 06:36:09;;;;;;;10.52;9.40;;;;;;;27.96;49.04;98221.03;5034212;28;20521;-58
2023/08/24 06:38:34;;;;;;;18.27;9.23;;;;;;;28.16;49.19;98248.28;5034134;28;20267;-58
2023/08/24 06:40:59;;;;;;;13.07;9.00;;;;;;;28.22;49.28;98239.44;5033782;28;20571;-59
2023/08/24 06:43:26;;;;;;;13.30;9.27;;;;;;;28.24;49.43;98240.84;5034121;28;20165;-58
2023/08/24 06:45:51;;;;;;;10.68;9.35;;;;;;;28.27;49.29;98224.41;5033993;28;20206;-58
2023/08/24 06:48:17;;;;;;;15.05;9.10;;;;;;;28.46;48.92;98239.38;5034307;28;20232;-58
2023/08/24 06:50:43;;;;;;;10.52;8.70;;;;;;;28.58;48.97;98240.25;5033953;28;20181;-58
2023/08/24 06:53:08;;;;;;;18.70;9.50;;;;;;;28.66;49.12;98223.16;5033674;28;20235;-58
2023/08/24 06:55:34;;;;;;;14.55;9.63;;;;;;;28.84;48.76;98231.97;5033610;28;20170;-58
2023/08/24 06:57:59;;;;;;;17.63;10.15;;;;;;;29.07;47.42;98242.75;5033782;28;20201;-58
2023/08/24 07:00:25;;;;;;;18.98;9.25;;;;;;;29.07;47.29;98233.94;5033740;28;20201;-59
2023/08/24 07:02:50;;;;;;;13.85;10.57;;;;;;;29.41;46.64;98266.06;5033410;28;20842;-57
2023/08/24 07:05:20;;;;;;;13.65;9.90;;;;;;;29.45;46.60;98258.41;5033354;28;20235;-60
2023/08/24 07:07:47;;;;;;;11.55;9.35;;;;;;;29.63;45.64;98261.84;5033524;28;20264;-57
2023/08/24 07:10:12;;;;;;;11.80;9.85;;;;;;;29.79;45.16;98263.84;5033064;28;20198;-57
2023/08/24 07:12:41;;;;;;;15.80;10.27;;;;;;;29.77;44.63;98244.59;5033507;28;20178;-58
2023/08/24 07:15:07;;;;;;;16.83;9.85;;;;;;;29.87;45.00;98255.50;5033528;28;20212;-58
2023/08/24 07:17:33;;;;;;;14.80;9.35;;;;;;;29.99;45.19;98263.50;5033276;28;20224;-58
2023/08/24 07:19:58;;;;;;;17.38;9.00;;;;;;;29.94;44.62;98253.53;5033175;28;20623;-58
2023/08/24 07:22:26;;;;;;;13.70;8.55;;;;;;;30.10;44.69;98282.25;5030591;28;20229;-58
2023/08/24 07:24:52;;;;;;;11.23;8.05;;;;;;;30.14;44.07;98270.03;5030705;28;20588;-58
2023/08/24 07:27:18;;;;;;;10.60;7.82;;;;;;;30.03;44.38;98246.78;5030762;28;20189;-58
2023/08/24 07:29:43;;;;;;;9.85;8.07;;;;;;;30.13;44.50;98254.28;5030748;28;20302;-58
2023/08/24 07:32:09;;;;;;;10.90;8.57;;;;;;;30.31;44.74;98273.63;5030687;28;20190;-58
2023/08/24 07:34:34;;;;;;;18.20;9.10;;;;;;;30.33;44.10;98268.06;5030618;28;20180;-59
2023/08/24 07:36:59;;;;;;;12.82;8.07;;;;;;;30.33;43.70;98282.25;5030773;28;20232;-59
2023/08/24 07:39:25;;;;;;;10.25;8.38;;;;;;;30.33;43.85;98279.56;5030687;28;20580;-59
2023/08/24 07:41:51;;;;;;;15.23;8.02;;;;;;;30.37;44.67;98280.72;5030154;28;20199;-59
2023/08/24 07:44:16;;;;;;;11.98;7.43;;;;;;;30.29;44.95;98264.22;5030486;28;20222;-59
2023/08/24 07:46:42;;;;;;;8.45;7.45;;;;;;;30.13;45.10;98239.06;5030444;28;20697;-59
2023/08/24 07:49:07;;;;;;;11.98;7.13;;;;;;;30.25;45.02;98242.53;5030250;28;20192;-59
2023/08/24 07:51:33;;;;;;;10.32;7.10;;;;;;;30.45;44.54;98259.00;5030200;28;20290;-59
2023/08/24 07:53:59;;;;;;;8.95;7.53;;;;;;;30.60;44.05;98264.66;5031709;28;20244;-58
2023/08/24 07:56:25;;;;;;;8.90;7.53;;;;;;;30.68;44.30;98250.16;5032596;28;20178;-59
2023/08/24 07:58:50;;;;;;;8.23;7.38;;;;;;;30.82;44.33;98260.34;5029870;28;20185;-59
2023/08/24 08:01:15;;;;;;;6.93;6.38;;;;;;;30.74;43.88;98235.84;5029973;28;20213;-59
2023/08/24 08:03:41;;;;;;;9.82;7.43;;;;;;;30.93;44.18;98246.13;5030038;28;20186;-59
2023/08/24 08:06:06;;;;;;;7.70;6.88;;;;;;;31.05;43.88;98254.91;5029961;28;20273;-59
2023/08/24 08:08:32;;;;;;;8.02;6.78;;;;;;;31.10;43.77;98240.81;5029781;28;20642;-59
2023/08/24 08:11:01;;;;;;;7.18;6.57;;;;;;;31.16;42.67;98227.31;5029824;28;20281;-59
2023/08/24 08:13:30;;;;;;;8.63;6.60;;;;;;;31.41;42.58;98259.88;5029792;28;20182;-59
2023/08/24 08:16:03;;;;;;;8.15;6.47;;;;;;;31.45;41.84;98255.69;5029653;28;20263;-58
2023/08/24 08:18:29;;;;;;;9.23;6.82;;;;;;;31.32;41.33;98231.94;5029714;28;20178;-58
2023/08/24 08:20:54;;;;;;;6.20;5.65;;;;;;;31.38;40.56;98232.81;5029677;28;20348;-58
2023/08/24 08:23:20;;;;;;;6.30;5.80;;;;;;;31.43;39.99;98255.09;5029671;28;20181;-58
2023/08/24 08:25:45;;;;;;;6.25;5.68;;;;;;;31.36;39.77;98232.25;5029592;28;20613;-58
2023/08/24 08:28:11;;;;;;;5.43;4.93;;;;;;;31.59;38.83;98256.19;5029611;28;20174;-57
2023/08/24 08:30:36;;;;;;;5.47;4.97;;;;;;;31.41;38.80;98219.78;5029551;28;20189;-57
2023/08/24 08:33:02;;;;;;;7.00;4.68;;;;;;;31.53;39.00;98233.88;5029460;28;20529;-58
2023/08/24 08:35:27;;;;;;;5.65;5.28;;;;;;;31.61;39.13;98240.72;5029800;28;20248;-58
2023/08/24 08:37:53;;;;;;;4.68;4.28;;;;;;;31.68;37.55;98236.81;5031903;28;20639;-58
2023/08/24 08:40:19;;;;;;;3.97;3.60;;;;;;;31.73;36.92;98223.56;5031791;28;20201;-59
2023/08/24 08:42:45;;;;;;;4.35;4.00;;;;;;;31.98;36.24;98223.94;5031709;28;20178;-58
2023/08/24 08:45:11;;;;;;;4.32;3.47;;;;;;;32.19;35.62;98239.25;5031973;28;20264;-58
2023/08/24 08:47:37;;;;;;;11.07;4.05;;;;;;;32.03;35.11;98207.94;5031503;28;20277;-58
2023/08/24 08:50:04;;;;;;;4.50;4.20;;;;;;;32.30;35.54;98232.97;5031439;28;20189;-58
2023/08/24 08:52:31;;;;;;;3.95;3.65;;;;;;;32.31;35.23;98218.56;5032040;28;20173;-58
2023/08/24 08:54:56;;;;;;;3.50;3.30;;;;;;;32.36;35.10;98201.75;5030835;28;20661;-58
2023/08/24 08:57:24;;;;;;;4.15;3.35;;;;;;;32.46;35.08;98205.34;5031478;28;20265;-58
2023/08/24 08:59:52;;;;;;;5.50;4.03;;;;;;;32.62;35.26;98215.19;5031392;28;20241;-58
2023/08/24 09:02:19;;;;;;;4.90;4.47;;;;;;;32.66;35.34;98227.06;5031185;28;20562;-58
2023/08/24 09:04:45;;;;;;;6.18;3.90;;;;;;;32.61;35.64;98213.59;5031451;28;20182;-58
2023/08/24 09:07:13;;;;;;;5.60;3.80;;;;;;;32.75;35.28;98236.25;5031354;28;20205;-58
2023/08/24 09:09:39;;;;;;;4.03;3.72;;;;;;;32.69;35.24;98210.44;5030812;28;20202;-58
2023/08/24 09:12:05;;;;;;;4.20;3.90;;;;;;;32.78;35.60;98225.06;5031155;28;20165;-58
2023/08/24 09:14:31;;;;;;;4.80;4.20;;;;;;;32.87;35.38;98236.19;5031090;28;20223;-58
2023/08/24 09:16:56;;;;;;;5.13;4.50;;;;;;;32.82;35.65;98226.19;5031101;28;20256;-58
2023/08/24 09:19:29;;;;;;;4.50;4.20;;;;;;;32.87;35.76;98223.56;5028300;28;20285;-58
2023/08/24 09:21:58;;;;;;;5.80;3.95;;;;;;;32.82;36.20;98214.66;5028555;28;20606;-57
2023/08/24 09:24:35;;;;;;;7.40;4.13;;;;;;;32.99;36.22;98237.63;5028475;28;20181;-58
2023/08/24 09:27:14;;;;;;;5.50;4.82;;;;;;;33.07;36.25;98247.94;5028613;28;20232;-58
2023/08/24 09:29:40;;;;;;;6.65;4.20;;;;;;;32.98;36.38;98222.63;5028571;28;20193;-58
2023/08/24 09:32:08;;;;;;;5.43;4.97;;;;;;;33.11;36.60;98240.97;5028536;28;20609;-58
2023/08/24 09:34:36;;;;;;;7.95;5.05;;;;;;;33.19;37.13;98243.22;5028384;28;20579;-59
2023/08/24 09:37:04;;;;;;;5.75;4.97;;;;;;;33.24;37.08;98239.78;5028479;28;20178;-58
2023/08/24 09:39:29;;;;;;;4.93;4.43;;;;;;;33.17;37.01;98223.88;5028217;28;20659;-58
2023/08/24 09:42:01;;;;;;;6.20;4.65;;;;;;;33.32;36.30;98236.66;5028419;28;20182;-58
2023/08/24 09:44:28;;;;;;;6.78;4.80;;;;;;;33.40;37.04;98244.28;5028357;28;20190;-58
2023/08/24 09:46:54;;;;;;;5.93;4.95;;;;;;;33.27;37.40;98234.75;5028431;28;20585;-58
2023/08/24 09:49:19;;;;;;;5.10;4.70;;;;;;;33.40;37.17;98237.00;5028284;28;20229;-58
2023/08/24 09:51:45;;;;;;;5.30;4.88;;;;;;;33.42;36.90;98229.53;5030697;28;20170;-58
2023/08/24 09:54:13;;;;;;;6.30;5.28;;;;;;;33.49;36.87;98222.09;5030688;28;20205;-58
2023/08/24 09:56:39;;;;;;;5.72;5.15;;;;;;;33.64;37.28;98232.94;5030709;28;20280;-58
2023/08/24 09:59:13;;;;;;;7.97;5.68;;;;;;;33.50;37.16;98202.22;5030679;28;20243;-58
2023/08/24 10:01:47;;;;;;;5.72;5.32;;;;;;;33.76;36.46;98220.16;5030656;28;20255;-58
2023/08/24 10:04:15;;;;;;;8.35;5.40;;;;;;;33.87;35.44;98226.44;5030748;28;20178;-58
2023/08/24 10:06:42;;;;;;;7.43;5.57;;;;;;;33.78;35.53;98204.63;5033947;28;20294;-58
2023/08/24 10:09:14;;;;;;;5.88;4.95;;;;;;;33.85;35.58;98205.22;5034367;28;20268;-58
2023/08/24 10:11:49;;;;;;;6.00;5.10;;;;;;;34.05;34.64;98218.75;5034501;28;20174;-58
2023/08/24 10:14:52;;;;;;;5.80;5.30;;;;;;;34.16;34.87;98211.59;5034507;28;20184;-57
2023/08/24 10:17:17;;;;;;;5.78;5.20;;;;;;;33.97;34.58;98186.25;5034318;28;20170;-58
2023/08/24 10:19:44;;;;;;;7.53;5.00;;;;;;;34.14;35.08;98203.78;5034084;28;20259;-58
2023/08/24 10:22:10;;;;;;;6.68;5.20;;;;;;;34.21;34.91;98198.97;5034180;28;20193;-58
2023/08/24 10:24:36;;;;;;;7.65;5.78;;;;;;;34.19;34.40;98168.91;5051413;28;20223;-58
2023/08/24 10:27:03;;;;;;;6.28;5.70;;;;;;;34.33;34.13;98178.13;5031392;28;20186;-57
2023/08/24 10:29:29;;;;;;;7.40;5.63;;;;;;;34.47;33.76;98175.75;5031506;28;20197;-58
2023/08/24 10:31:56;;;;;;;7.28;5.68;;;;;;;34.51;33.65;98176.88;5031523;28;20632;-58
2023/08/24 10:34:22;;;;;;;6.32;5.82;;;;;;;34.71;34.41;98193.88;5031573;28;20186;-58
2023/08/24 10:36:48;;;;;;;9.23;6.25;;;;;;;34.82;34.02;98195.56;5031479;28;20563;-58
2023/08/24 10:39:14;;;;;;;6.47;5.72;;;;;;;34.82;34.17;98171.34;5031490;28;20731;-58
2023/08/24 10:41:51;;;;;;;6.10;5.60;;;;;;;34.78;33.65;98150.63;4991783;28;20250;-58
2023/08/24 10:44:23;;;;;;;6.82;6.18;;;;;;;34.85;33.10;98149.28;4991901;28;20717;-58
2023/08/24 10:47:08;;;;;;;6.38;5.80;;;;;;;35.34;34.15;98177.38;4991887;28;20282;-58
2023/08/24 10:49:33;;;;;;;7.10;6.00;;;;;;;35.64;33.79;98187.31;4991765;28;20246;-58
2023/08/24 10:52:23;;;;;;;7.60;6.53;;;;;;;35.76;33.77;98152.88;4991711;28;20195;-58
2023/08/24 10:54:51;;;;;;;7.20;6.57;;;;;;;35.70;33.19;98135.94;4988256;28;20195;-58
2023/08/24 10:57:23;;;;;;;8.20;6.15;;;;;;;35.79;32.84;98160.41;4979998;28;20193;-58
2023/08/24 11:00:13;;;;;;;9.73;6.38;;;;;;;35.76;32.32;98148.31;5011160;28;20700;-58
2023/08/24 11:02:46;;;;;;;7.78;5.60;;;;;;;35.79;33.34;98157.72;5011273;28;21443;-58
2023/08/24 11:05:22;;;;;;;6.50;5.90;;;;;;;35.78;33.34;98150.72;5011238;28;20265;-58
2023/08/24 11:07:54;;;;;;;6.72;6.15;;;;;;;35.50;32.47;98149.38;5011118;28;20196;-58
2023/08/24 11:10:21;;;;;;;7.13;6.30;;;;;;;35.56;33.20;98131.34;5010820;28;20202;-58
2023/08/24 11:13:09;;;;;;;7.80;6.18;;;;;;;35.32;33.29;98133.75;5022960;28;20629;-58
2023/08/24 11:15:40;;;;;;;8.07;5.90;;;;;;;35.28;33.15;98119.25;5033188;28;20174;-59
2023/08/24 11:18:27;;;;;;;10.73;6.20;;;;;;;35.38;33.63;98131.91;5032426;28;20543;-58
2023/08/24 11:21:03;;;;;;;7.85;6.55;;;;;;;35.33;34.01;98095.00;5033006;28;20261;-60
2023/08/24 11:23:29;;;;;;;10.25;6.70;;;;;;;35.56;34.22;98117.88;5033098;28;20170;-59
2023/08/24 11:25:57;;;;;;;9.43;6.55;;;;;;;35.45;34.57;98098.25;5030270;28;20212;-60
2023/08/24 11:28:25;;;;;;;8.02;6.28;;;;;;;35.52;33.17;98108.72;5030388;28;20277;-58
2023/08/24 11:30:51;;;;;;;7.10;5.85;;;;;;;35.31;32.48;98074.84;5030396;28;20192;-58